Weather at London Heathrow Airport

Public forecast

Using degrees Celsius for public forecast. Weather courtesy of forecast.io.

Current aviation weather report (METAR) for London Heathrow Airport

Retrieved 2021/03/02 18:20 UTC (6 minutes ago):

EGLL 021820Z AUTO 04004KT 9999 NCD 07/04 Q1029

Aviation forecast (TAF) for London Heathrow Airport

Forecast is more than 6 hours old.

Retrieved 2021/03/02 12:00 UTC (6 hours ago):

TAF EGLL 021059Z 0212/0318 07006KT 7000 OVC008 BECMG 0212/0214 FEW012 TEMPO 0214/0219 9999 BECMG 0223/0302 4000 BR BKN005 TEMPO 0302/0310 BKN003 PROB30 TEMPO 0303/0309 1400 BECMG 0310/0313 9999 NSW SCT010 TEMPO 0313/0318 7000 SHRA BKN010